createdAt,value
2019-03-17T00:00:51.346Z,9.88
2019-03-17T00:03:23.956Z,12.63
2019-03-17T00:05:55.528Z,7.33
2019-03-17T00:11:22.970Z,10.90
2019-03-17T00:14:03.306Z,8.28
2019-03-17T00:16:33.164Z,8.50
2019-03-17T00:19:03.056Z,9.93
2019-03-17T00:21:35.727Z,10.15
2019-03-17T00:24:05.603Z,8.90
2019-03-17T00:26:35.977Z,10.18
2019-03-17T00:29:08.956Z,11.43
2019-03-17T00:31:41.050Z,11.35
2019-03-17T00:34:14.660Z,7.70
2019-03-17T00:36:44.574Z,12.03
2019-03-17T00:39:15.178Z,9.60
2019-03-17T00:41:46.089Z,12.43
2019-03-17T00:44:15.850Z,13.85
2019-03-17T00:46:51.376Z,8.93
2019-03-17T00:49:21.263Z,8.50
2019-03-17T00:51:51.054Z,8.53
2019-03-17T00:54:20.968Z,9.53
2019-03-17T00:56:53.045Z,11.15
2019-03-17T00:59:24.219Z,9.13
2019-03-17T01:01:54.114Z,9.50
2019-03-17T01:04:28.054Z,11.55
2019-03-17T01:06:57.945Z,14.28
2019-03-17T01:09:38.651Z,11.22
2019-03-17T01:12:10.209Z,9.78
2019-03-17T01:14:40.184Z,11.38
2019-03-17T01:17:15.586Z,9.25
2019-03-17T01:19:45.634Z,9.80
2019-03-17T01:22:19.850Z,8.60
2019-03-17T01:24:49.725Z,9.90
2019-03-17T01:27:20.230Z,9.93
2019-03-17T01:29:50.411Z,14.18
2019-03-17T01:32:21.874Z,12.55
2019-03-17T01:35:08.145Z,9.90
2019-03-17T01:37:27.775Z,11.33
2019-03-17T01:40:00.367Z,11.95
2019-03-17T01:42:30.246Z,9.08
2019-03-17T01:45:08.891Z,9.28
2019-03-17T01:47:40.505Z,9.65
2019-03-17T01:50:26.391Z,9.10
2019-03-17T01:53:05.004Z,11.45
2019-03-17T01:55:34.984Z,11.28
2019-03-17T01:58:09.086Z,12.13
2019-03-17T02:00:44.070Z,11.55
2019-03-17T02:03:14.258Z,13.28
2019-03-17T02:15:10.748Z,11.97
2019-03-17T02:17:46.580Z,11.53
2019-03-17T02:20:18.668Z,18.90
2019-03-17T02:22:56.960Z,10.68
2019-03-17T02:25:32.254Z,9.83
2019-03-17T02:28:07.915Z,11.38
2019-03-17T02:31:06.871Z,11.70
2019-03-17T02:33:51.666Z,12.90
2019-03-17T02:36:53.421Z,15.25
2019-03-17T02:39:26.454Z,10.90
2019-03-17T02:42:11.283Z,9.30
2019-03-17T02:44:54.565Z,14.83
2019-03-17T02:47:52.546Z,11.78
2019-03-17T02:50:22.138Z,13.18
2019-03-17T02:52:52.698Z,11.12
2019-03-17T02:55:22.506Z,8.45
2019-03-17T02:57:52.285Z,13.08
2019-03-17T03:00:22.100Z,13.00
2019-03-17T03:02:52.525Z,9.00
2019-03-17T03:05:22.342Z,13.65
2019-03-17T03:07:52.145Z,16.70
2019-03-17T03:10:21.964Z,10.55
2019-03-17T03:12:51.798Z,12.95
2019-03-17T03:15:21.668Z,11.15
2019-03-17T03:17:51.544Z,12.35
2019-03-17T03:20:21.324Z,13.25
2019-03-17T03:22:51.036Z,10.38
2019-03-17T03:25:20.839Z,15.28
2019-03-17T03:27:50.576Z,11.78
2019-03-17T03:30:20.481Z,18.52
2019-03-17T03:32:50.305Z,14.60
2019-03-17T03:35:20.062Z,17.45
2019-03-17T03:37:49.901Z,10.35
2019-03-17T03:40:19.850Z,14.15
2019-03-17T03:42:49.640Z,12.05
2019-03-17T03:45:19.432Z,14.68
2019-03-17T03:47:49.182Z,15.58
2019-03-17T03:50:19.021Z,16.70
2019-03-17T03:52:49.014Z,13.40
2019-03-17T03:55:18.823Z,13.48
2019-03-17T03:57:48.547Z,14.85
2019-03-17T04:00:18.364Z,14.15
2019-03-17T04:02:48.261Z,16.82
2019-03-17T04:05:18.873Z,16.55
2019-03-17T04:07:48.778Z,14.28
2019-03-17T04:10:18.529Z,15.23
2019-03-17T04:12:48.355Z,14.07
2019-03-17T04:15:18.263Z,16.25
2019-03-17T04:17:48.191Z,14.63
2019-03-17T04:20:18.064Z,17.15
2019-03-17T04:22:47.697Z,19.02
2019-03-17T04:25:18.285Z,17.17
2019-03-17T04:27:48.020Z,13.10
2019-03-17T04:30:17.924Z,10.65
2019-03-17T04:32:48.031Z,10.45
2019-03-17T04:35:17.723Z,11.03
2019-03-17T04:37:47.481Z,8.80
2019-03-17T04:40:18.950Z,9.28
2019-03-17T04:42:48.728Z,6.58
2019-03-17T04:47:47.005Z,4.75
2019-03-17T04:50:16.782Z,6.90
2019-03-17T04:52:46.746Z,8.73
2019-03-17T04:55:16.410Z,9.88
2019-03-17T04:57:46.091Z,9.20
2019-03-17T05:00:15.801Z,9.18
2019-03-17T05:02:45.541Z,8.28
2019-03-17T05:05:15.464Z,10.10
2019-03-17T05:07:45.171Z,10.15
2019-03-17T05:10:14.956Z,10.38
2019-03-17T05:12:44.710Z,9.38
2019-03-17T05:15:14.492Z,5.45
2019-03-17T05:17:44.134Z,3.10
2019-03-17T05:20:14.779Z,4.95
2019-03-17T05:22:44.694Z,5.87
2019-03-17T05:25:14.413Z,2.37
2019-03-17T05:27:44.121Z,5.90
2019-03-17T05:30:13.923Z,2.40
2019-03-17T05:32:43.636Z,4.33
2019-03-17T05:35:13.437Z,6.92
2019-03-17T05:37:43.163Z,2.92
2019-03-17T05:40:14.048Z,4.53
2019-03-17T05:42:43.859Z,3.95
2019-03-17T05:45:13.646Z,2.87
2019-03-17T05:47:43.503Z,4.58
2019-03-17T05:50:13.304Z,1.92
2019-03-17T05:52:43.037Z,3.05
2019-03-17T05:55:12.806Z,5.33
2019-03-17T05:57:42.526Z,3.72
2019-03-17T06:00:16.369Z,6.78
2019-03-17T06:02:46.152Z,4.30
2019-03-17T06:05:15.883Z,5.08
2019-03-17T06:07:45.637Z,3.85
2019-03-17T06:10:15.409Z,4.62
2019-03-17T06:12:45.213Z,7.75
2019-03-17T06:15:15.076Z,3.27
2019-03-17T06:17:44.792Z,6.10
2019-03-17T06:20:15.210Z,6.70
2019-03-17T06:22:45.483Z,6.83
2019-03-17T06:25:15.391Z,5.85
2019-03-17T06:27:45.187Z,7.92
2019-03-17T06:30:15.262Z,7.22
2019-03-17T06:32:45.059Z,8.30
2019-03-17T06:35:14.883Z,3.40
2019-03-17T06:37:44.858Z,7.90
2019-03-17T06:40:15.062Z,6.70
2019-03-17T06:42:44.884Z,9.23
2019-03-17T06:45:14.635Z,9.58
2019-03-17T06:47:44.420Z,5.42
2019-03-17T06:50:15.734Z,4.62
2019-03-17T06:52:45.407Z,5.45
2019-03-17T06:55:18.381Z,10.00
2019-03-17T06:57:48.198Z,7.80
2019-03-17T07:00:18.063Z,6.17
2019-03-17T07:02:47.860Z,7.33
2019-03-17T07:05:17.590Z,8.68
2019-03-17T07:07:47.405Z,9.03
2019-03-17T07:10:17.194Z,5.90
2019-03-17T07:12:47.396Z,6.03
2019-03-17T07:15:18.057Z,11.08
2019-03-17T07:17:47.852Z,8.80
2019-03-17T07:20:17.553Z,7.72
2019-03-17T07:22:47.394Z,8.33
2019-03-17T07:25:17.241Z,11.12
2019-03-17T07:27:47.019Z,5.95
2019-03-17T07:30:19.741Z,7.28
2019-03-17T07:32:49.462Z,8.48
2019-03-17T07:35:19.308Z,11.83
2019-03-17T07:37:56.749Z,8.58
2019-03-17T07:40:20.501Z,7.30
2019-03-17T07:42:50.401Z,7.75
2019-03-17T07:45:20.205Z,8.73
2019-03-17T07:47:50.070Z,9.75
2019-03-17T07:50:19.945Z,9.05
2019-03-17T07:52:49.813Z,11.55
2019-03-17T07:55:19.688Z,7.70
2019-03-17T07:57:50.206Z,9.83
2019-03-17T08:00:31.256Z,12.25
2019-03-17T08:02:53.437Z,11.55
2019-03-17T08:05:23.232Z,9.05
2019-03-17T08:07:53.016Z,10.80
2019-03-17T08:10:36.452Z,11.73
2019-03-17T08:13:06.320Z,10.63
2019-03-17T08:15:36.092Z,4.95
2019-03-17T08:18:06.076Z,6.40
2019-03-17T08:20:35.843Z,5.40
2019-03-17T08:23:05.767Z,5.75
2019-03-17T08:25:36.260Z,3.40
2019-03-17T08:28:06.289Z,1.95
2019-03-17T08:30:36.098Z,3.80
2019-03-17T08:33:06.116Z,4.05
2019-03-17T08:35:35.907Z,3.15
2019-03-17T08:38:06.238Z,2.02
2019-03-17T08:40:36.163Z,5.20
2019-03-17T08:43:05.975Z,2.62
2019-03-17T08:45:36.565Z,2.65
2019-03-17T08:48:06.359Z,0.90
2019-03-17T08:50:36.602Z,1.45
2019-03-17T08:53:06.818Z,2.00
2019-03-17T08:55:37.362Z,2.70
2019-03-17T08:58:07.636Z,2.92
2019-03-17T09:00:37.437Z,3.02
2019-03-17T09:03:07.492Z,2.50
2019-03-17T09:05:37.486Z,4.30
2019-03-17T09:08:07.287Z,4.17
2019-03-17T09:10:37.217Z,5.58
2019-03-17T09:13:07.278Z,6.40
2019-03-17T09:15:45.126Z,3.80
2019-03-17T09:18:14.813Z,6.35
2019-03-17T09:20:45.301Z,5.33
2019-03-17T09:23:15.106Z,1.80
2019-03-17T09:25:44.862Z,2.42
2019-03-17T09:28:14.652Z,2.47
2019-03-17T09:30:44.561Z,5.00
2019-03-17T09:33:14.325Z,4.45
2019-03-17T09:35:44.119Z,3.72
2019-03-17T09:38:14.030Z,4.40
2019-03-17T09:40:43.855Z,4.67
2019-03-17T09:43:14.516Z,3.85
2019-03-17T09:45:44.331Z,3.52
2019-03-17T09:48:14.865Z,2.00
2019-03-17T09:50:44.807Z,4.45
2019-03-17T09:53:14.639Z,3.45
2019-03-17T09:55:47.605Z,4.10
2019-03-17T09:58:19.009Z,1.95
2019-03-17T10:00:49.819Z,2.15
2019-03-17T10:03:20.199Z,2.02
2019-03-17T10:05:51.377Z,2.90
2019-03-17T10:08:33.235Z,1.40
2019-03-17T10:11:10.556Z,3.00
2019-03-17T10:13:46.833Z,2.20
2019-03-17T10:16:30.086Z,5.45
2019-03-17T10:19:20.800Z,4.03
2019-03-17T10:25:18.038Z,3.10
2019-03-17T10:34:00.126Z,4.00
2019-03-17T10:36:54.741Z,3.12
2019-03-17T10:42:45.542Z,3.08
2019-03-17T11:02:59.637Z,2.37
2019-03-17T11:05:43.624Z,2.42
2019-03-17T11:20:34.155Z,3.75
2019-03-17T11:22:56.582Z,3.85
2019-03-17T11:39:39.435Z,7.20
2019-03-17T11:58:02.408Z,5.17
2019-03-17T12:00:47.712Z,7.35
2019-03-17T12:03:47.910Z,4.33
2019-03-17T12:12:56.606Z,2.95
2019-03-17T12:18:46.658Z,3.87
2019-03-17T12:42:16.108Z,6.08
2019-03-17T12:44:39.494Z,3.98
2019-03-17T12:50:06.768Z,6.08
2019-03-17T12:55:48.984Z,2.98
2019-03-17T12:58:47.450Z,3.80
2019-03-17T13:01:35.636Z,7.30
2019-03-17T13:10:28.209Z,4.55
2019-03-17T13:13:25.938Z,3.08
2019-03-17T13:16:15.672Z,4.05
2019-03-17T13:19:21.854Z,4.45
2019-03-17T13:22:10.947Z,4.45
2019-03-17T13:34:00.257Z,3.20
2019-03-17T13:40:30.200Z,7.97
2019-03-17T13:43:00.153Z,4.10
2019-03-17T13:48:51.600Z,4.75
2019-03-17T13:51:43.140Z,5.23
2019-03-17T13:54:21.964Z,5.60
2019-03-17T14:05:18.335Z,6.10
2019-03-17T14:07:59.602Z,6.17
2019-03-17T14:19:34.065Z,4.33
2019-03-17T14:31:00.801Z,7.65
2019-03-17T14:33:32.869Z,5.37
2019-03-17T14:36:28.892Z,5.35
2019-03-17T14:51:39.249Z,5.35
2019-03-17T15:34:30.225Z,9.58
2019-03-17T15:37:04.887Z,7.10
2019-03-17T15:39:37.660Z,7.45
2019-03-17T15:42:07.500Z,6.12
2019-03-17T15:44:37.386Z,4.03
2019-03-17T16:12:57.409Z,7.47
2019-03-17T16:27:55.701Z,5.22
2019-03-17T16:30:35.286Z,4.53
2019-03-17T16:36:04.412Z,5.67
2019-03-17T16:38:39.952Z,8.35
2019-03-17T16:44:17.975Z,8.43
2019-03-17T16:46:56.294Z,7.30
2019-03-17T16:49:26.348Z,14.28
2019-03-17T16:51:56.292Z,12.43
2019-03-17T16:54:26.218Z,19.62
2019-03-17T16:56:55.989Z,13.80
2019-03-17T16:59:26.535Z,10.58
2019-03-17T17:01:56.451Z,8.70
2019-03-17T17:04:33.675Z,5.95
2019-03-17T17:07:09.472Z,10.00
2019-03-17T17:09:43.669Z,4.70
2019-03-17T17:12:13.604Z,6.25
2019-03-17T17:14:59.316Z,6.33
2019-03-17T17:27:08.745Z,2.95
2019-03-17T17:29:39.733Z,5.87
2019-03-17T17:35:37.435Z,4.60
2019-03-17T17:38:10.640Z,4.95
2019-03-17T17:40:41.616Z,4.20
2019-03-17T17:43:11.403Z,3.25
2019-03-17T17:45:41.446Z,3.67
2019-03-17T17:48:13.015Z,3.55
2019-03-17T17:50:46.003Z,3.58
2019-03-17T17:53:17.422Z,5.25
2019-03-17T17:55:45.570Z,4.85
2019-03-17T17:58:20.322Z,1.50
2019-03-17T18:00:53.452Z,1.75
2019-03-17T18:03:26.404Z,3.60
2019-03-17T18:05:56.616Z,3.22
2019-03-17T18:08:30.470Z,3.37
2019-03-17T18:11:03.543Z,3.87
2019-03-17T18:13:39.838Z,1.12
2019-03-17T18:16:17.915Z,2.02
2019-03-17T18:19:00.864Z,3.90
2019-03-17T18:24:28.102Z,6.50
2019-03-17T18:27:04.323Z,4.08
2019-03-17T18:29:44.321Z,4.20
2019-03-17T18:32:31.109Z,3.72
2019-03-17T18:35:02.656Z,4.73
2019-03-17T18:37:33.384Z,6.83
2019-03-17T18:40:11.413Z,5.55
2019-03-17T18:42:49.080Z,9.78
2019-03-17T18:45:33.095Z,9.28
2019-03-17T18:48:04.076Z,11.28
2019-03-17T18:50:47.290Z,5.28
2019-03-17T18:53:27.137Z,3.83
2019-03-17T18:55:59.087Z,6.47
2019-03-17T18:58:37.781Z,7.78
2019-03-17T19:01:18.014Z,5.22
2019-03-17T19:03:50.390Z,6.40
2019-03-17T19:06:21.849Z,4.90
2019-03-17T19:08:55.519Z,6.33
2019-03-17T19:11:27.201Z,6.55
2019-03-17T19:14:04.332Z,6.12
2019-03-17T19:16:39.963Z,7.83
2019-03-17T19:19:28.102Z,6.25
2019-03-17T19:22:02.813Z,7.97
2019-03-17T19:24:36.315Z,15.53
2019-03-17T19:27:05.879Z,9.95
2019-03-17T19:29:37.407Z,9.25
2019-03-17T19:32:08.465Z,7.58
2019-03-17T19:34:38.290Z,8.18
2019-03-17T19:37:08.922Z,9.85
2019-03-17T19:39:38.759Z,8.15
2019-03-17T19:42:08.621Z,8.53
2019-03-17T19:44:38.462Z,7.62
2019-03-17T19:49:36.967Z,8.50
2019-03-17T19:52:06.780Z,8.55
2019-03-17T19:54:43.743Z,14.45
2019-03-17T19:57:43.533Z,11.45
2019-03-17T20:00:20.672Z,9.53
2019-03-17T20:03:02.853Z,8.35
2019-03-17T20:05:37.165Z,7.97
2019-03-17T20:08:26.102Z,7.42
2019-03-17T20:11:26.977Z,10.48
2019-03-17T20:13:48.366Z,8.45
2019-03-17T20:16:25.566Z,8.78
2019-03-17T20:18:55.909Z,11.97
2019-03-17T20:21:26.814Z,13.62
2019-03-17T20:23:58.267Z,12.65
2019-03-17T20:26:38.470Z,11.88
2019-03-17T20:29:09.633Z,8.68
2019-03-17T20:32:09.089Z,8.55
2019-03-17T20:34:46.928Z,10.35
2019-03-17T20:37:22.207Z,22.80
2019-03-17T20:43:18.616Z,9.10
2019-03-17T20:46:38.981Z,9.43
2019-03-17T20:49:03.035Z,10.28
2019-03-17T21:55:32.231Z,11.38
2019-03-17T22:00:07.060Z,10.80
2019-03-17T22:01:24.251Z,17.42
2019-03-17T22:09:56.301Z,13.62
2019-03-17T22:12:29.760Z,9.00
2019-03-17T22:15:03.899Z,16.27
2019-03-17T22:17:36.386Z,13.43
2019-03-17T22:20:11.951Z,11.88
2019-03-17T22:22:50.988Z,9.28
2019-03-17T22:25:22.582Z,11.55
2019-03-17T22:28:07.842Z,13.58
2019-03-17T22:30:30.706Z,10.65
2019-03-17T22:33:03.324Z,9.25
2019-03-17T22:35:35.390Z,11.85
2019-03-17T22:38:07.610Z,8.00
2019-03-17T22:40:53.310Z,7.87
2019-03-17T22:43:30.336Z,5.22
2019-03-17T22:46:03.185Z,6.35
2019-03-17T22:48:36.157Z,8.35
2019-03-17T22:51:08.549Z,7.10
